Time;durP1;ratioP1;P1;durP2;ratioP2;P2;SDS_P1;SDS_P2;PMS_P1;PMS_P2;Temp;Humidity;BMP_temperature;BMP_pressure;BME280_temperature;BME280_humidity;BME280_pressure;Samples;Min_cycle;Max_cycle;Signal;HPM_P1;HPM_P2
2024/03/11 00:00:51;;;;;;;22.27;12.87;;;11.00;99.90;;;;;;4992783;28;20484;-68
2024/03/11 00:03:18;;;;;;;24.03;13.57;;;10.90;99.90;;;;;;4991367;28;20481;-68
2024/03/11 00:05:45;;;;;;;19.40;11.33;;;10.90;99.90;;;;;;4993961;28;20457;-68
2024/03/11 00:08:16;;;;;;;22.40;13.43;;;10.90;99.90;;;;;;4987059;28;20923;-68
2024/03/11 00:10:44;;;;;;;20.23;11.97;;;10.80;99.90;;;;;;4990652;28;20550;-67
2024/03/11 00:13:11;;;;;;;25.70;15.23;;;10.80;99.90;;;;;;4994252;28;20918;-67
2024/03/11 00:15:39;;;;;;;27.97;12.90;;;10.80;99.90;;;;;;4995636;28;20457;-67
2024/03/11 00:18:08;;;;;;;22.80;11.83;;;10.70;99.90;;;;;;5192107;22;20485;-73
2024/03/11 00:20:38;;;;;;;27.37;13.80;;;10.70;99.90;;;;;;5021110;28;20475;-72
2024/03/11 00:23:05;;;;;;;24.60;11.50;;;10.70;99.90;;;;;;5024696;28;20566;-72
2024/03/11 00:25:31;;;;;;;29.53;13.33;;;10.80;99.90;;;;;;5023684;28;20986;-72
2024/03/11 00:27:59;;;;;;;27.30;13.03;;;10.80;99.90;;;;;;5030787;28;20542;-72
2024/03/11 00:30:26;;;;;;;20.47;12.27;;;10.80;99.90;;;;;;5024920;28;20483;-73
2024/03/11 00:32:53;;;;;;;29.77;14.20;;;10.80;99.90;;;;;;5031790;28;20456;-72
2024/03/11 00:35:24;;;;;;;22.10;12.63;;;10.90;99.90;;;;;;5017921;28;20557;-73
2024/03/11 00:37:51;;;;;;;21.00;11.90;;;11.00;99.90;;;;;;5024011;28;20551;-73
2024/03/11 00:40:18;;;;;;;21.10;11.13;;;11.00;99.90;;;;;;5026668;28;20487;-73
2024/03/11 00:42:45;;;;;;;25.53;13.97;;;11.00;99.90;;;;;;5032044;28;20455;-72
2024/03/11 00:45:12;;;;;;;25.57;13.60;;;11.10;99.90;;;;;;5023810;28;20466;-72
2024/03/11 00:47:40;;;;;;;32.67;14.77;;;10.90;99.90;;;;;;5028092;28;20941;-72
2024/03/11 00:50:08;;;;;;;20.70;13.00;;;10.80;99.90;;;;;;5032559;28;20487;-72
2024/03/11 00:52:37;;;;;;;19.73;13.43;;;10.90;99.90;;;;;;5038476;28;20463;-72
2024/03/11 00:55:09;;;;;;;19.13;11.77;;;10.90;99.90;;;;;;5036942;28;20856;-72
2024/03/11 00:57:36;;;;;;;25.03;13.50;;;10.80;99.90;;;;;;5041477;28;20451;-72
2024/03/11 01:00:05;;;;;;;22.93;17.20;;;10.90;99.90;;;;;;5031291;28;20479;-73
2024/03/11 01:02:32;;;;;;;26.47;14.10;;;10.80;99.90;;;;;;5031639;28;21228;-72
2024/03/11 01:04:59;;;;;;;20.27;12.07;;;10.60;99.90;;;;;;5032513;28;20551;-72
2024/03/11 01:07:26;;;;;;;24.70;14.40;;;10.60;99.90;;;;;;5037512;28;20460;-72
2024/03/11 01:09:54;;;;;;;20.60;13.20;;;10.40;99.90;;;;;;5039066;28;20495;-73
2024/03/11 01:12:22;;;;;;;30.63;16.90;;;10.00;99.90;;;;;;5027980;28;20912;-72
2024/03/11 01:14:51;;;;;;;23.30;11.57;;;10.00;99.90;;;;;;5032283;28;20939;-71
2024/03/11 01:17:18;;;;;;;19.60;11.33;;;10.10;99.90;;;;;;5025429;28;21864;-71
2024/03/11 01:19:45;;;;;;;30.00;12.87;;;10.20;99.90;;;;;;5028158;28;20476;-72
2024/03/11 01:22:12;;;;;;;19.67;12.73;;;10.30;99.90;;;;;;5024955;28;20438;-72
2024/03/11 01:24:39;;;;;;;33.73;16.83;;;10.40;99.90;;;;;;5031174;28;21705;-73
2024/03/11 01:27:10;;;;;;;23.50;12.40;;;10.40;99.90;;;;;;5027675;28;20525;-72
2024/03/11 01:29:38;;;;;;;27.70;13.80;;;10.40;99.90;;;;;;5025297;28;20570;-72
2024/03/11 01:32:06;;;;;;;30.30;14.90;;;10.40;99.90;;;;;;5027229;28;20466;-72
2024/03/11 01:34:33;;;;;;;26.23;13.03;;;10.40;99.90;;;;;;5034913;28;20893;-72
2024/03/11 01:37:01;;;;;;;25.20;12.40;;;10.30;99.90;;;;;;5026909;28;20538;-72
2024/03/11 01:39:28;;;;;;;28.73;13.00;;;10.20;99.90;;;;;;5028364;28;20458;-71
2024/03/11 01:41:54;;;;;;;27.87;12.70;;;10.10;99.90;;;;;;5031447;28;20467;-71
2024/03/11 01:44:22;;;;;;;24.30;13.67;;;10.20;99.90;;;;;;5024292;28;20474;-71
2024/03/11 01:46:53;;;;;;;23.27;15.77;;;10.20;99.90;;;;;;5019484;28;20464;-72
2024/03/11 01:49:21;;;;;;;26.27;13.50;;;10.20;99.90;;;;;;5019314;28;20994;-71
2024/03/11 01:51:48;;;;;;;28.17;13.63;;;10.20;99.90;;;;;;5028772;28;20485;-71
2024/03/11 01:54:15;;;;;;;24.07;13.80;;;10.20;99.90;;;;;;5030824;28;20495;-71
2024/03/11 01:56:42;;;;;;;28.20;14.67;;;10.30;99.90;;;;;;5027639;28;20554;-71
2024/03/11 01:59:12;;;;;;;23.27;13.93;;;10.30;99.90;;;;;;5026266;28;20954;-71
2024/03/11 02:01:41;;;;;;;29.73;15.37;;;10.40;99.90;;;;;;5019202;28;20554;-71
2024/03/11 02:04:09;;;;;;;23.50;13.10;;;10.40;99.90;;;;;;5027978;28;20850;-71
2024/03/11 02:06:36;;;;;;;29.33;13.50;;;10.30;99.90;;;;;;5023978;28;20464;-71
2024/03/11 02:09:07;;;;;;;26.37;13.97;;;10.20;99.90;;;;;;5022441;28;20544;-71
2024/03/11 02:11:34;;;;;;;23.37;11.63;;;10.00;99.90;;;;;;5021374;28;20588;-71
2024/03/11 02:14:01;;;;;;;30.13;15.60;;;9.80;99.90;;;;;;5017493;28;25832;-70
2024/03/11 02:16:28;;;;;;;21.23;13.13;;;9.90;99.90;;;;;;5019476;28;20452;-71
2024/03/11 02:18:56;;;;;;;24.20;14.53;;;9.80;99.90;;;;;;5023809;28;20483;-71
2024/03/11 02:21:23;;;;;;;33.10;17.27;;;9.80;99.90;;;;;;5009262;28;20518;-71
2024/03/11 02:23:51;;;;;;;24.13;14.13;;;9.80;99.90;;;;;;5019692;28;20468;-71
2024/03/11 02:26:19;;;;;;;24.03;13.50;;;9.80;99.90;;;;;;5026746;28;20463;-70
2024/03/11 02:28:46;;;;;;;27.60;12.93;;;9.90;99.90;;;;;;5023371;28;20473;-72
2024/03/11 02:31:13;;;;;;;19.87;12.10;;;9.80;99.90;;;;;;5017420;28;20479;-72
2024/03/11 02:33:40;;;;;;;31.63;13.77;;;9.90;99.90;;;;;;5019347;28;20478;-71
2024/03/11 02:36:07;;;;;;;33.33;16.23;;;9.90;99.90;;;;;;5023515;28;20461;-71
2024/03/11 02:38:34;;;;;;;20.93;12.63;;;9.70;99.90;;;;;;5014098;28;20468;-71
2024/03/11 02:41:02;;;;;;;24.43;13.50;;;9.70;99.90;;;;;;5022091;28;21294;-71
2024/03/11 02:43:29;;;;;;;28.60;17.50;;;9.80;99.90;;;;;;5017687;28;20935;-71
2024/03/11 02:45:56;;;;;;;24.50;14.77;;;9.80;99.90;;;;;;5005509;28;20470;-71
2024/03/11 02:48:23;;;;;;;24.83;13.87;;;9.90;99.90;;;;;;5022888;28;20459;-71
2024/03/11 02:50:50;;;;;;;32.03;12.63;;;9.90;99.90;;;;;;5031245;28;20613;-72
2024/03/11 02:53:17;;;;;;;24.13;12.40;;;9.90;99.90;;;;;;5027161;28;20865;-71
2024/03/11 02:55:43;;;;;;;23.93;12.80;;;9.80;99.90;;;;;;5025695;28;20460;-71
2024/03/11 02:58:12;;;;;;;28.97;14.97;;;9.90;99.90;;;;;;5030165;28;20472;-72
2024/03/11 03:00:39;;;;;;;30.60;16.83;;;9.90;99.90;;;;;;5032994;28;21072;-72
2024/03/11 03:03:06;;;;;;;25.20;15.27;;;9.80;99.90;;;;;;5031212;28;20459;-72
2024/03/11 03:05:33;;;;;;;18.87;12.90;;;9.80;99.90;;;;;;5028517;28;20545;-70
2024/03/11 03:08:00;;;;;;;21.67;14.80;;;9.90;99.90;;;;;;5028907;28;20948;-73
2024/03/11 03:10:28;;;;;;;31.53;15.40;;;10.00;99.90;;;;;;5029328;28;20566;-72
2024/03/11 03:12:55;;;;;;;28.60;15.27;;;10.00;99.90;;;;;;5029885;28;20460;-71
2024/03/11 03:15:23;;;;;;;22.50;10.87;;;9.90;99.90;;;;;;5031914;28;20487;-71
2024/03/11 03:17:50;;;;;;;26.20;14.10;;;9.70;99.90;;;;;;5017189;28;20475;-71
2024/03/11 03:20:18;;;;;;;29.30;15.77;;;9.60;99.90;;;;;;5027138;28;20477;-71
2024/03/11 03:22:45;;;;;;;28.63;14.97;;;9.60;99.90;;;;;;5033193;28;20545;-72
2024/03/11 03:25:13;;;;;;;32.47;16.13;;;9.70;99.90;;;;;;5028201;28;20598;-72
2024/03/11 03:27:39;;;;;;;25.23;13.53;;;9.80;99.90;;;;;;5027229;28;20478;-72
2024/03/11 03:30:07;;;;;;;31.60;16.87;;;9.90;99.90;;;;;;5026586;28;20493;-72
2024/03/11 03:32:36;;;;;;;34.60;16.07;;;9.80;99.90;;;;;;5030376;28;20466;-72
2024/03/11 03:35:02;;;;;;;33.87;16.57;;;9.80;99.90;;;;;;5033109;28;20531;-72
2024/03/11 03:37:29;;;;;;;32.37;15.27;;;9.80;99.90;;;;;;5020935;28;20495;-72
2024/03/11 03:39:56;;;;;;;31.07;16.00;;;9.80;99.90;;;;;;5031274;28;21032;-72
2024/03/11 03:42:23;;;;;;;30.77;15.53;;;10.00;99.90;;;;;;5029231;28;21127;-71
2024/03/11 03:44:51;;;;;;;24.13;13.70;;;9.90;99.90;;;;;;5030244;28;20456;-72
2024/03/11 03:47:18;;;;;;;25.80;14.90;;;9.90;99.90;;;;;;5021609;28;20463;-72
2024/03/11 03:49:46;;;;;;;28.17;15.70;;;9.90;99.90;;;;;;5032000;28;20445;-71
2024/03/11 03:52:12;;;;;;;33.13;17.37;;;9.70;99.90;;;;;;5026366;28;20932;-72
2024/03/11 03:54:39;;;;;;;29.53;15.20;;;9.70;99.90;;;;;;5025617;28;20438;-72
2024/03/11 03:57:06;;;;;;;25.43;15.27;;;9.70;99.90;;;;;;5025394;28;20460;-72
2024/03/11 03:59:33;;;;;;;26.20;13.20;;;9.60;99.90;;;;;;5028684;28;21178;-72
2024/03/11 04:01:59;;;;;;;32.50;17.17;;;9.60;99.90;;;;;;5025632;28;20441;-72
2024/03/11 04:04:25;;;;;;;32.93;16.40;;;9.60;99.90;;;;;;5031925;28;20475;-72
2024/03/11 04:06:53;;;;;;;27.87;15.00;;;9.70;99.90;;;;;;5029471;28;20451;-72
2024/03/11 04:09:20;;;;;;;26.90;13.47;;;9.70;99.90;;;;;;5023030;28;20252;-72
2024/03/11 04:11:47;;;;;;;27.60;15.40;;;9.50;99.90;;;;;;5026139;28;20492;-72
2024/03/11 04:14:13;;;;;;;23.00;13.80;;;9.60;99.90;;;;;;5027068;28;20458;-71
2024/03/11 04:16:42;;;;;;;30.80;16.03;;;9.60;99.90;;;;;;5022275;28;20466;-72
2024/03/11 04:19:09;;;;;;;29.93;16.97;;;9.60;99.90;;;;;;5012385;28;20478;-73
2024/03/11 04:21:37;;;;;;;32.93;15.40;;;9.70;99.90;;;;;;5027055;28;20430;-73
2024/03/11 04:24:06;;;;;;;28.97;16.47;;;9.70;99.90;;;;;;5026147;28;20603;-73
2024/03/11 04:26:33;;;;;;;25.10;14.23;;;9.70;99.90;;;;;;5024938;28;20442;-73
2024/03/11 04:29:01;;;;;;;32.63;15.27;;;9.80;99.90;;;;;;5024428;28;20484;-71
2024/03/11 04:31:28;;;;;;;26.53;16.23;;;9.80;99.90;;;;;;5027875;28;21855;-72
2024/03/11 04:33:55;;;;;;;32.67;15.30;;;9.80;99.90;;;;;;5027558;28;20475;-72
2024/03/11 04:36:22;;;;;;;32.77;18.73;;;9.80;99.90;;;;;;5024130;28;20550;-72
2024/03/11 04:38:49;;;;;;;31.83;17.80;;;9.80;99.90;;;;;;5021257;28;20537;-72
2024/03/11 04:41:17;;;;;;;35.63;14.30;;;9.70;99.90;;;;;;5028927;28;21013;-72
2024/03/11 04:43:45;;;;;;;36.80;17.57;;;9.70;99.90;;;;;;5031222;28;20529;-71
2024/03/11 04:46:12;;;;;;;28.77;15.17;;;9.70;99.90;;;;;;5027489;28;20490;-72
2024/03/11 04:48:39;;;;;;;30.50;16.90;;;9.70;99.90;;;;;;5030635;28;20468;-72
2024/03/11 04:51:06;;;;;;;32.40;15.53;;;9.70;99.90;;;;;;5025055;28;20472;-72
2024/03/11 04:53:33;;;;;;;30.60;17.97;;;9.70;99.90;;;;;;5029109;28;20523;-72
2024/03/11 04:56:00;;;;;;;27.07;14.77;;;9.70;99.90;;;;;;5031473;28;20913;-71
2024/03/11 04:58:28;;;;;;;32.00;17.03;;;9.60;99.90;;;;;;5033696;28;20463;-72
2024/03/11 05:00:55;;;;;;;30.70;17.33;;;9.70;99.90;;;;;;5027229;28;20510;-72
2024/03/11 05:03:22;;;;;;;28.53;16.53;;;9.80;99.90;;;;;;5025741;28;20451;-72
2024/03/11 05:05:49;;;;;;;30.27;16.37;;;9.80;99.90;;;;;;5036329;28;20466;-72
2024/03/11 05:08:15;;;;;;;30.17;17.67;;;9.80;99.90;;;;;;5030811;28;20464;-73
2024/03/11 05:10:42;;;;;;;29.80;15.43;;;9.70;99.90;;;;;;5034943;28;20935;-72
2024/03/11 05:13:09;;;;;;;31.20;17.57;;;9.60;99.90;;;;;;5033808;28;20470;-72
2024/03/11 05:15:37;;;;;;;34.07;15.07;;;9.60;99.90;;;;;;5027036;28;20625;-73
2024/03/11 05:18:04;;;;;;;28.67;16.70;;;9.50;99.90;;;;;;5031792;28;20585;-72
2024/03/11 05:20:31;;;;;;;34.10;15.70;;;9.40;99.90;;;;;;5032655;28;20890;-72
2024/03/11 05:23:00;;;;;;;33.73;16.43;;;9.40;99.90;;;;;;5024934;28;21084;-72
2024/03/11 05:25:27;;;;;;;30.23;17.90;;;9.40;99.90;;;;;;5030311;28;20467;-72
2024/03/11 05:27:54;;;;;;;25.10;15.60;;;9.40;99.90;;;;;;5030008;28;20471;-72
2024/03/11 05:30:21;;;;;;;26.53;15.83;;;9.50;99.90;;;;;;5029364;28;20518;-72
2024/03/11 05:32:49;;;;;;;33.67;15.50;;;9.60;99.90;;;;;;5036370;28;20550;-73
2024/03/11 05:35:16;;;;;;;26.33;14.90;;;9.60;99.90;;;;;;5023880;28;20479;-72
2024/03/11 05:37:43;;;;;;;33.87;19.07;;;9.60;99.90;;;;;;5033336;28;20448;-72
2024/03/11 05:40:11;;;;;;;39.40;18.67;;;9.50;99.90;;;;;;5037645;28;20576;-72
2024/03/11 05:42:38;;;;;;;30.77;16.57;;;9.70;99.90;;;;;;5032670;28;20957;-72
2024/03/11 05:45:06;;;;;;;34.70;17.33;;;9.60;99.90;;;;;;5036069;28;20730;-72
2024/03/11 05:47:33;;;;;;;32.13;15.67;;;9.60;99.90;;;;;;5029628;28;20472;-73
2024/03/11 05:50:03;;;;;;;32.80;16.93;;;9.70;99.90;;;;;;5031744;28;20530;-72
2024/03/11 05:52:32;;;;;;;28.00;16.10;;;9.70;99.90;;;;;;5029615;28;20466;-72
2024/03/11 05:55:11;;;;;;;36.57;16.27;;;9.70;99.90;;;;;;5038972;28;20503;-72
2024/03/11 05:57:40;;;;;;;30.80;14.77;;;9.70;99.90;;;;;;5026251;28;20471;-72
2024/03/11 06:00:09;;;;;;;28.87;17.70;;;9.60;99.90;;;;;;5034792;28;20558;-71
2024/03/11 06:02:36;;;;;;;25.53;15.83;;;9.70;99.90;;;;;;5029308;28;20456;-72
2024/03/11 06:05:05;;;;;;;38.03;18.13;;;9.60;99.90;;;;;;5029125;28;20459;-72
2024/03/11 06:07:33;;;;;;;35.47;16.80;;;9.70;99.90;;;;;;5029965;28;20473;-72
2024/03/11 06:10:00;;;;;;;33.53;15.40;;;9.60;99.90;;;;;;5029459;28;20482;-73
2024/03/11 06:12:28;;;;;;;32.97;15.97;;;9.50;99.90;;;;;;5035789;28;20458;-72
2024/03/11 06:14:55;;;;;;;30.93;16.10;;;9.70;99.90;;;;;;5035950;28;20514;-73
2024/03/11 06:17:22;;;;;;;27.57;15.57;;;9.80;99.90;;;;;;5030332;28;20459;-72
2024/03/11 06:22:27;;;;;;;27.17;15.27;;;9.80;99.90;;;;;;5045057;28;20497;-70
2024/03/11 06:24:54;;;;;;;38.30;18.03;;;9.80;99.90;;;;;;5046681;28;20470;-69
2024/03/11 06:27:21;;;;;;;28.30;13.63;;;9.80;99.90;;;;;;5053155;28;20467;-69
2024/03/11 06:29:49;;;;;;;35.73;16.10;;;9.80;99.90;;;;;;5046785;28;20821;-70
2024/03/11 06:32:16;;;;;;;24.27;14.80;;;9.80;99.90;;;;;;5052211;28;20581;-70
2024/03/11 06:34:43;;;;;;;40.07;17.03;;;9.90;99.90;;;;;;5057281;28;21300;-68
2024/03/11 06:37:11;;;;;;;30.60;16.80;;;9.90;99.90;;;;;;5048426;28;20467;-68
2024/03/11 06:39:39;;;;;;;31.80;16.37;;;9.90;99.90;;;;;;5057085;28;20459;-68
2024/03/11 06:42:07;;;;;;;37.10;16.77;;;9.90;99.90;;;;;;5057665;28;20998;-67
2024/03/11 06:44:35;;;;;;;37.30;17.37;;;9.90;99.90;;;;;;5051300;28;20498;-67
2024/03/11 06:47:02;;;;;;;37.37;17.10;;;10.00;99.90;;;;;;5051106;28;20462;-67
2024/03/11 06:49:31;;;;;;;34.60;17.03;;;9.90;99.90;;;;;;5052758;28;20483;-68
2024/03/11 06:51:58;;;;;;;30.00;17.10;;;9.90;99.90;;;;;;5058699;28;20577;-67
2024/03/11 06:54:24;;;;;;;35.97;19.43;;;10.00;99.90;;;;;;5047573;28;20838;-67
2024/03/11 06:56:52;;;;;;;42.70;20.80;;;10.00;99.90;;;;;;5054740;28;20973;-67
2024/03/11 06:59:18;;;;;;;33.60;17.03;;;10.10;99.90;;;;;;5049533;28;20831;-69
2024/03/11 07:01:45;;;;;;;34.40;17.37;;;10.20;99.90;;;;;;5058113;28;20450;-67
2024/03/11 07:04:12;;;;;;;34.00;17.97;;;10.20;99.90;;;;;;5058564;28;20576;-69
2024/03/11 07:06:40;;;;;;;41.47;17.90;;;10.10;99.90;;;;;;5053905;28;20459;-69
2024/03/11 07:09:07;;;;;;;34.90;17.73;;;10.00;99.90;;;;;;5054700;28;20566;-68
2024/03/11 07:11:34;;;;;;;42.77;17.73;;;10.10;99.90;;;;;;5057424;28;21169;-68
2024/03/11 07:14:02;;;;;;;29.63;18.67;;;10.00;99.90;;;;;;5052761;28;20429;-69
2024/03/11 07:16:31;;;;;;;29.37;16.63;;;9.90;99.90;;;;;;5053204;28;20542;-69
2024/03/11 07:18:59;;;;;;;32.30;16.03;;;9.90;99.90;;;;;;5047518;28;20458;-68
2024/03/11 07:21:28;;;;;;;37.77;19.47;;;10.00;99.90;;;;;;5052208;28;20468;-68
2024/03/11 07:23:55;;;;;;;35.00;17.80;;;10.20;99.90;;;;;;5055838;28;20442;-68
2024/03/11 07:26:22;;;;;;;29.73;15.97;;;10.20;99.90;;;;;;5057859;28;20462;-68
2024/03/11 07:28:49;;;;;;;40.20;19.67;;;10.30;99.90;;;;;;5055485;28;20613;-69
2024/03/11 07:31:17;;;;;;;31.97;17.67;;;10.30;99.90;;;;;;5052090;28;20478;-68
2024/03/11 07:33:47;;;;;;;31.63;16.90;;;10.30;99.90;;;;;;5044802;28;20542;-68
2024/03/11 07:36:15;;;;;;;31.90;17.27;;;10.20;99.90;;;;;;5056788;28;20445;-68
2024/03/11 07:38:43;;;;;;;33.97;17.63;;;10.20;99.90;;;;;;5057654;28;20797;-68
2024/03/11 07:41:11;;;;;;;37.33;19.83;;;10.20;99.90;;;;;;5054670;28;20454;-68
2024/03/11 07:43:37;;;;;;;41.80;20.70;;;10.20;99.90;;;;;;5047886;28;20516;-67
2024/03/11 07:46:04;;;;;;;36.73;18.93;;;10.30;99.90;;;;;;5056053;28;20426;-68
2024/03/11 07:48:33;;;;;;;44.97;22.20;;;10.30;99.90;;;;;;5052052;28;20466;-68
2024/03/11 07:51:01;;;;;;;36.40;18.50;;;10.30;99.90;;;;;;5048540;28;21324;-68
2024/03/11 07:53:27;;;;;;;33.80;18.67;;;10.30;99.90;;;;;;5050008;28;21019;-68
2024/03/11 07:55:54;;;;;;;39.23;20.93;;;10.30;99.90;;;;;;5059876;28;20457;-68
2024/03/11 07:58:22;;;;;;;48.33;17.00;;;10.30;99.90;;;;;;5052203;28;20508;-68
2024/03/11 08:00:49;;;;;;;35.20;18.37;;;10.20;99.90;;;;;;5052291;28;20926;-68
2024/03/11 08:03:19;;;;;;;40.53;19.00;;;10.20;99.90;;;;;;5052796;28;20465;-69
2024/03/11 08:05:47;;;;;;;33.20;17.93;;;10.30;99.90;;;;;;5059590;28;20573;-70
2024/03/11 08:08:17;;;;;;;32.47;18.90;;;10.30;99.90;;;;;;5055643;28;20442;-69
2024/03/11 08:10:44;;;;;;;44.73;23.83;;;10.30;99.90;;;;;;5053374;28;20535;-68
2024/03/11 08:13:11;;;;;;;32.13;17.03;;;10.20;99.90;;;;;;5048474;28;20486;-68
2024/03/11 08:15:39;;;;;;;32.73;17.50;;;10.00;99.90;;;;;;5059158;28;20482;-68
2024/03/11 08:18:06;;;;;;;31.70;16.20;;;9.90;99.90;;;;;;5054268;28;20440;-69
2024/03/11 08:20:34;;;;;;;38.10;18.00;;;9.90;99.90;;;;;;5052613;28;20545;-69
2024/03/11 08:23:03;;;;;;;34.97;19.50;;;9.90;99.90;;;;;;5054969;28;20456;-69
2024/03/11 08:25:31;;;;;;;31.90;17.87;;;10.00;99.90;;;;;;5054840;28;20460;-68
2024/03/11 08:27:58;;;;;;;41.97;16.83;;;10.00;99.90;;;;;;5050089;28;21349;-68
2024/03/11 08:30:26;;;;;;;38.23;18.93;;;10.10;99.90;;;;;;5053530;28;20460;-68
2024/03/11 08:32:54;;;;;;;35.80;17.60;;;10.10;99.90;;;;;;5053260;28;20472;-68
2024/03/11 08:35:23;;;;;;;30.50;16.40;;;10.10;99.90;;;;;;5050269;28;20590;-68
2024/03/11 08:37:50;;;;;;;35.93;17.80;;;10.00;99.90;;;;;;5054397;28;20482;-68
2024/03/11 08:40:19;;;;;;;39.70;19.17;;;9.90;99.90;;;;;;5054332;28;21005;-68
2024/03/11 08:42:47;;;;;;;25.90;15.47;;;9.90;99.90;;;;;;5052687;28;20458;-69
2024/03/11 08:45:18;;;;;;;30.50;16.07;;;10.00;99.90;;;;;;5056778;28;20477;-69
2024/03/11 08:47:46;;;;;;;24.10;16.87;;;10.00;99.90;;;;;;5058347;28;20505;-68
2024/03/11 08:50:15;;;;;;;30.07;17.40;;;10.10;99.90;;;;;;5048753;28;20484;-68
2024/03/11 08:52:45;;;;;;;32.33;15.17;;;10.10;99.90;;;;;;5057769;28;20911;-68
2024/03/11 08:55:13;;;;;;;40.37;18.10;;;10.10;99.90;;;;;;5057649;28;21225;-68
2024/03/11 08:57:41;;;;;;;30.23;14.77;;;10.00;99.90;;;;;;5055879;28;21266;-68
2024/03/11 09:00:09;;;;;;;29.67;17.13;;;10.00;99.90;;;;;;5054641;28;20969;-68
2024/03/11 09:02:36;;;;;;;31.43;16.47;;;10.00;99.90;;;;;;5054737;28;20525;-68
2024/03/11 09:05:03;;;;;;;32.10;15.57;;;10.00;99.90;;;;;;5059909;28;20543;-68
2024/03/11 09:07:30;;;;;;;30.20;15.27;;;10.00;99.90;;;;;;5053920;28;20932;-68
2024/03/11 09:09:57;;;;;;;30.67;16.30;;;10.10;99.90;;;;;;5056748;28;20486;-68
2024/03/11 09:12:25;;;;;;;24.80;13.90;;;10.10;99.90;;;;;;5049970;28;20483;-68
2024/03/11 09:14:55;;;;;;;23.90;15.20;;;10.10;99.90;;;;;;5055258;28;20524;-68
2024/03/11 09:17:22;;;;;;;24.83;15.90;;;10.00;99.90;;;;;;5062173;28;20942;-67
2024/03/11 09:19:49;;;;;;;28.17;14.87;;;9.90;99.90;;;;;;5060436;28;20577;-68
2024/03/11 09:22:19;;;;;;;24.57;14.00;;;9.90;99.90;;;;;;5052082;28;20976;-68
2024/03/11 09:24:46;;;;;;;17.13;12.93;;;10.00;99.90;;;;;;5048525;28;20454;-68
2024/03/11 09:27:13;;;;;;;25.83;13.67;;;9.90;99.90;;;;;;5045388;28;20426;-68
2024/03/11 09:29:40;;;;;;;23.10;13.10;;;9.70;99.90;;;;;;5052061;28;21156;-68
2024/03/11 09:32:09;;;;;;;21.10;11.63;;;9.70;99.90;;;;;;5058520;28;20566;-67
2024/03/11 09:34:36;;;;;;;23.17;12.17;;;9.80;99.90;;;;;;5051254;28;20469;-67
2024/03/11 09:37:03;;;;;;;16.60;8.63;;;9.70;99.90;;;;;;5049442;28;20481;-67
2024/03/11 09:39:29;;;;;;;20.60;9.43;;;9.70;99.90;;;;;;5047803;28;20458;-68
2024/03/11 09:42:00;;;;;;;11.90;7.60;;;9.70;99.90;;;;;;5053061;28;20429;-67
2024/03/11 09:44:27;;;;;;;19.00;10.80;;;9.70;99.90;;;;;;5052801;28;20460;-67
2024/03/11 09:46:56;;;;;;;14.30;8.07;;;9.70;99.90;;;;;;5058278;28;20539;-68
2024/03/11 09:49:24;;;;;;;11.87;7.73;;;9.60;99.90;;;;;;5058149;28;20513;-69
2024/03/11 09:51:53;;;;;;;14.77;7.50;;;9.60;99.90;;;;;;5052159;28;20549;-68
2024/03/11 09:54:21;;;;;;;8.00;4.13;;;9.70;99.90;;;;;;5036292;28;20486;-68
2024/03/11 09:56:49;;;;;;;11.87;7.40;;;9.60;99.90;;;;;;5056209;28;20470;-68
2024/03/11 09:59:19;;;;;;;13.13;7.97;;;9.70;99.90;;;;;;5049680;28;20486;-68
2024/03/11 10:01:52;;;;;;;17.00;10.10;;;9.80;99.90;;;;;;5049122;28;20569;-68
2024/03/11 10:04:20;;;;;;;19.60;11.23;;;9.90;99.90;;;;;;5052496;28;20572;-68
2024/03/11 10:06:57;;;;;;;20.77;9.40;;;10.00;99.90;;;;;;5049739;28;20471;-68
2024/03/11 10:09:24;;;;;;;13.83;8.53;;;10.00;99.90;;;;;;5049868;28;20510;-68
2024/03/11 10:12:03;;;;;;;13.30;9.00;;;10.00;99.90;;;;;;5046263;28;21266;-68
2024/03/11 10:14:33;;;;;;;15.03;9.17;;;10.00;99.90;;;;;;5051622;28;20810;-68
2024/03/11 10:17:17;;;;;;;21.17;9.10;;;10.10;99.90;;;;;;5050574;28;20466;-67
2024/03/11 10:19:47;;;;;;;16.37;9.33;;;10.10;99.90;;;;;;5052126;28;20475;-68
2024/03/11 10:22:22;;;;;;;18.23;8.20;;;10.10;99.90;;;;;;5055437;28;20458;-67
2024/03/11 10:24:52;;;;;;;9.17;7.50;;;10.20;99.90;;;;;;5055844;28;20807;-68
2024/03/11 10:27:19;;;;;;;22.27;9.80;;;10.20;99.90;;;;;;5052132;28;20477;-68
2024/03/11 10:29:46;;;;;;;15.30;9.63;;;10.00;99.90;;;;;;5062394;28;20474;-68
2024/03/11 10:32:33;;;;;;;22.40;10.53;;;10.00;99.90;;;;;;5062170;28;20485;-68
2024/03/11 10:35:02;;;;;;;24.50;10.57;;;9.90;99.90;;;;;;5060010;28;21018;-68
2024/03/11 10:37:31;;;;;;;16.80;10.20;;;9.70;99.90;;;;;;5046730;28;20546;-69
2024/03/11 10:39:59;;;;;;;19.80;11.50;;;9.80;99.90;;;;;;5056727;28;20444;-68
2024/03/11 10:42:28;;;;;;;22.07;11.10;;;9.80;99.90;;;;;;5051834;28;20459;-68
2024/03/11 10:44:55;;;;;;;19.50;10.53;;;9.90;99.90;;;;;;5056072;28;20445;-69
2024/03/11 10:47:24;;;;;;;28.83;13.93;;;9.90;99.90;;;;;;5048972;28;20544;-68
2024/03/11 10:49:53;;;;;;;21.57;10.33;;;10.00;99.90;;;;;;5057117;28;20828;-69
2024/03/11 10:52:22;;;;;;;23.13;11.80;;;10.00;99.90;;;;;;5056899;28;20551;-68
2024/03/11 10:54:54;;;;;;;18.43;10.43;;;10.00;99.90;;;;;;5054778;28;20579;-68
2024/03/11 10:57:34;;;;;;;15.47;8.37;;;10.10;99.90;;;;;;5050753;28;20494;-68
2024/03/11 11:00:09;;;;;;;11.07;5.90;;;10.10;99.90;;;;;;5054594;28;20501;-68
2024/03/11 11:02:38;;;;;;;20.27;10.73;;;10.00;99.90;;;;;;5052502;28;20489;-68
2024/03/11 11:05:07;;;;;;;25.80;10.50;;;10.00;99.90;;;;;;5061108;28;20429;-68
2024/03/11 11:07:34;;;;;;;22.63;10.07;;;10.10;99.90;;;;;;5048612;28;20445;-69
2024/03/11 11:10:04;;;;;;;21.67;12.47;;;10.10;99.90;;;;;;5052520;28;20494;-69
2024/03/11 11:12:31;;;;;;;23.33;10.00;;;10.20;99.90;;;;;;5049805;28;20449;-69
2024/03/11 11:15:01;;;;;;;19.57;10.73;;;10.20;99.90;;;;;;5057841;28;20470;-69
2024/03/11 11:17:29;;;;;;;19.93;11.07;;;10.20;99.90;;;;;;5055796;28;20540;-69
2024/03/11 11:19:57;;;;;;;22.60;11.27;;;10.30;99.90;;;;;;5056314;28;20482;-67
2024/03/11 11:22:25;;;;;;;27.43;12.53;;;10.30;99.90;;;;;;5053528;28;20466;-68
2024/03/11 11:24:52;;;;;;;28.80;11.30;;;10.40;99.90;;;;;;5056767;28;20886;-68
2024/03/11 11:27:27;;;;;;;27.30;11.47;;;10.50;99.90;;;;;;5051699;28;21133;-68
2024/03/11 11:30:24;;;;;;;29.43;13.70;;;10.70;99.90;;;;;;5055879;28;20989;-68
2024/03/11 11:32:51;;;;;;;15.37;9.23;;;10.70;99.90;;;;;;5053710;28;20825;-68
2024/03/11 11:35:33;;;;;;;20.43;11.50;;;10.70;99.90;;;;;;5057616;28;20516;-67
2024/03/11 11:38:29;;;;;;;18.90;9.50;;;10.70;99.90;;;;;;5029443;28;20939;-67
2024/03/11 11:40:56;;;;;;;18.60;9.33;;;10.70;99.90;;;;;;5048459;28;20489;-68
2024/03/11 11:43:44;;;;;;;18.20;9.43;;;10.70;99.90;;;;;;5055434;28;20461;-69
2024/03/11 11:46:11;;;;;;;21.13;12.53;;;10.60;99.90;;;;;;5051984;28;20481;-68
2024/03/11 11:48:39;;;;;;;14.90;7.37;;;10.90;99.90;;;;;;5053980;28;20462;-68
2024/03/11 11:51:06;;;;;;;25.33;13.33;;;10.90;99.90;;;;;;5051985;28;20537;-68
2024/03/11 11:53:36;;;;;;;20.80;8.80;;;10.90;99.90;;;;;;5044798;28;20721;-68
2024/03/11 11:56:04;;;;;;;17.30;10.80;;;10.90;99.90;;;;;;5051643;28;20833;-69
2024/03/11 11:58:32;;;;;;;23.97;9.60;;;10.90;99.90;;;;;;5052410;28;20422;-68
2024/03/11 12:01:04;;;;;;;16.07;9.50;;;10.90;99.90;;;;;;5058144;28;20461;-68
2024/03/11 12:03:34;;;;;;;18.10;9.87;;;10.80;99.90;;;;;;5054226;28;20455;-68
2024/03/11 12:06:08;;;;;;;27.83;13.17;;;10.80;99.90;;;;;;5056774;28;20456;-69
2024/03/11 12:08:35;;;;;;;20.80;9.40;;;10.70;99.90;;;;;;5055699;28;20985;-69
2024/03/11 12:11:15;;;;;;;17.30;9.30;;;10.60;99.90;;;;;;5051543;28;20603;-69
2024/03/11 12:13:44;;;;;;;12.90;7.40;;;10.40;99.90;;;;;;5043840;28;20456;-69
2024/03/11 12:16:13;;;;;;;10.90;7.50;;;10.30;99.90;;;;;;5057296;28;20486;-69
2024/03/11 12:18:42;;;;;;;14.60;9.00;;;10.30;99.90;;;;;;5054570;28;21113;-69
2024/03/11 12:21:12;;;;;;;17.53;9.90;;;10.20;99.90;;;;;;5243330;22;26207;-70
2024/03/11 12:23:41;;;;;;;18.53;10.53;;;10.30;99.90;;;;;;5015749;28;20514;-71
2024/03/11 12:26:12;;;;;;;15.73;7.07;;;10.30;99.90;;;;;;5016417;28;20472;-70
2024/03/11 12:28:43;;;;;;;10.13;6.97;;;10.00;99.90;;;;;;5007758;28;20464;-71
2024/03/11 12:31:15;;;;;;;13.20;8.60;;;10.10;99.90;;;;;;5010601;28;20475;-70
2024/03/11 12:33:44;;;;;;;14.97;8.10;;;9.90;99.90;;;;;;5012799;28;20495;-70
2024/03/11 12:36:13;;;;;;;9.33;5.80;;;9.90;99.90;;;;;;5012304;28;20443;-71
2024/03/11 12:38:42;;;;;;;9.90;5.07;;;9.90;99.90;;;;;;5017965;28;21155;-71
2024/03/11 12:41:09;;;;;;;13.60;7.50;;;9.80;99.90;;;;;;5009901;28;20575;-70